Time;durP1;ratioP1;P1;durP2;ratioP2;P2;SDS_P1;SDS_P2;PMS_P1;PMS_P2;Temp;Humidity;BMP_temperature;BMP_pressure;BME280_temperature;BME280_humidity;BME280_pressure;Samples;Min_cycle;Max_cycle;Signal;HPM_P1;HPM_P2
2022/12/11 00:01:18;;;;;;;49.80;24.50;;;;;;;-0.47;90.04;97549.08;87518;1297;22503;-80
2022/12/11 00:03:19;;;;;;;;;;;;;;;-0.61;90.06;97526.32;87486;1307;23088;-78
2022/12/11 00:05:21;;;;;;;;;;;;;;;-0.46;90.03;97550.61;87578;1310;83977;-79
2022/12/11 00:07:23;;;;;;;47.90;24.60;;;;;;;-0.47;90.13;97549.77;87595;1309;22564;-80
2022/12/11 00:09:25;;;;;;;38.50;21.50;;;;;;;-0.47;90.08;97547.34;87516;1305;22233;-80
2022/12/11 00:11:27;;;;;;;41.60;22.40;;;;;;;-0.47;90.12;97543.71;87420;1313;97796;-79
2022/12/11 00:13:29;;;;;;;39.90;23.20;;;;;;;-0.47;89.98;97540.45;87410;1313;22571;-80
2022/12/11 00:15:31;;;;;;;39.20;22.50;;;;;;;-0.47;90.06;97538.89;87440;1304;22523;-79
2022/12/11 00:17:33;;;;;;;37.50;20.90;;;;;;;-0.47;90.07;97538.39;87298;1302;98722;-78
2022/12/11 00:19:35;;;;;;;41.00;22.40;;;;;;;-0.47;90.12;97538.71;87526;1304;22657;-80
2022/12/11 00:21:36;;;;;;;42.20;21.70;;;;;;;-0.47;89.99;97534.41;87394;1312;22757;-80
2022/12/11 00:23:38;;;;;;;38.00;22.30;;;;;;;-0.47;90.14;97529.92;87362;1309;22504;-79
2022/12/11 00:25:45;;;;;;;45.70;22.40;;;;;;;-0.47;90.03;97530.62;87297;1309;22493;-79
2022/12/11 00:27:47;;;;;;;37.50;22.80;;;;;;;-0.48;90.06;97532.88;87180;1313;98507;-79
2022/12/11 00:29:48;;;;;;;40.50;23.30;;;;;;;-0.48;90.14;97525.14;87379;1313;22577;-80
2022/12/11 00:31:50;;;;;;;41.90;23.80;;;;;;;-0.49;90.08;97522.55;87571;1313;23463;-80
2022/12/11 00:33:52;;;;;;;48.50;24.50;;;;;;;-0.49;90.13;97518.42;87360;1310;97932;-79
2022/12/11 00:35:53;;;;;;;43.70;22.90;;;;;;;-0.51;90.17;97517.79;87438;1297;22997;-79
2022/12/11 00:37:55;;;;;;;41.20;21.90;;;;;;;-0.51;90.04;97516.91;87415;1297;25237;-80
2022/12/11 00:39:57;;;;;;;51.80;25.60;;;;;;;-0.52;90.03;97514.70;87499;1309;97834;-81
2022/12/11 00:41:58;;;;;;;40.90;22.40;;;;;;;-0.52;90.02;97511.08;87581;1314;22742;-80
2022/12/11 00:44:00;;;;;;;38.70;21.50;;;;;;;-0.53;89.90;97506.09;87501;1312;23837;-81
2022/12/11 00:46:02;;;;;;;43.10;23.40;;;;;;;-0.53;89.95;97504.88;87392;1309;97715;-78
2022/12/11 00:48:05;;;;;;;40.10;23.00;;;;;;;-0.53;90.04;97504.89;87605;1306;22534;-79
2022/12/11 00:50:07;;;;;;;41.70;23.30;;;;;;;-0.53;89.93;97505.41;87748;1312;22159;-80
2022/12/11 00:52:09;;;;;;;41.30;25.10;;;;;;;-0.53;90.05;97503.52;87568;1313;97713;-80
2022/12/11 00:54:11;;;;;;;47.60;25.10;;;;;;;-0.56;90.03;97498.08;87915;1306;22558;-79
2022/12/11 00:56:20;;;;;;;42.80;23.10;;;;;;;-0.53;90.02;97501.79;87912;1312;24349;-80
2022/12/11 00:58:22;;;;;;;44.90;24.50;;;;;;;-0.53;89.99;97501.96;87802;1303;98560;-80
2022/12/11 01:00:24;;;;;;;43.70;25.00;;;;;;;-0.53;90.08;97495.90;87876;1303;22562;-80
2022/12/11 01:02:26;;;;;;;41.90;25.40;;;;;;;-0.52;89.98;97497.77;87760;1311;23228;-80
2022/12/11 01:04:28;;;;;;;53.50;26.20;;;;;;;-0.50;90.18;97503.27;87721;1293;98028;-79
2022/12/11 01:06:30;;;;;;;45.90;27.70;;;;;;;-0.50;90.02;97501.88;87737;1286;22479;-79
2022/12/11 01:08:33;;;;;;;48.20;27.50;;;;;;;-0.49;90.10;97498.58;87624;1310;23022;-79
2022/12/11 01:10:35;;;;;;;46.40;25.40;;;;;;;-0.47;90.10;97497.15;87513;1312;97896;-79
2022/12/11 01:12:36;;;;;;;45.50;24.80;;;;;;;-0.47;90.20;97498.86;87472;1310;22497;-80
2022/12/11 01:14:38;;;;;;;48.50;27.00;;;;;;;-0.47;90.04;97501.64;87442;1307;22500;-81
2022/12/11 01:16:40;;;;;;;42.20;24.80;;;;;;;-0.46;90.05;97502.80;87229;1308;98582;-80
2022/12/11 01:18:41;;;;;;;44.70;24.80;;;;;;;-0.45;90.06;97498.65;87329;1285;22689;-79
2022/12/11 01:20:43;;;;;;;40.10;23.30;;;;;;;-0.45;89.93;97498.80;87070;1312;22486;-81
2022/12/11 01:22:45;;;;;;;39.60;20.70;;;;;;;-0.45;90.02;97498.99;87112;1311;98415;-81
2022/12/11 01:24:47;;;;;;;39.90;20.90;;;;;;;-0.46;89.98;97502.45;87147;1313;23827;-81
2022/12/11 01:26:49;;;;;;;37.10;20.50;;;;;;;-0.47;90.04;97498.52;87322;1312;23638;-81
2022/12/11 01:28:51;;;;;;;35.00;22.50;;;;;;;-0.46;90.01;97500.04;87278;1294;97904;-81
2022/12/11 01:30:55;;;;;;;38.70;21.90;;;;;;;-0.46;89.92;97503.66;87334;1310;23993;-81
2022/12/11 01:32:57;;;;;;;43.00;23.20;;;;;;;-0.46;89.99;97501.60;87133;1313;22761;-81
2022/12/11 01:34:58;;;;;;;36.70;20.70;;;;;;;-0.46;90.15;97502.28;87054;1310;97924;-80
2022/12/11 01:37:00;;;;;;;33.60;20.50;;;;;;;-0.48;90.02;97498.54;87004;1312;22454;-82
2022/12/11 01:39:02;;;;;;;32.90;20.50;;;;;;;-0.47;89.96;97497.30;87422;1303;22645;-81
2022/12/11 01:41:04;;;;;;;39.90;20.40;;;;;;;-0.47;89.99;97495.08;87436;1300;97985;-82
2022/12/11 01:43:10;;;;;;;32.60;20.00;;;;;;;-0.48;90.07;97493.89;87650;1307;22430;-82
2022/12/11 01:45:20;;;;;;;33.50;20.00;;;;;;;-0.50;90.09;97489.98;87785;1309;22496;-81
2022/12/11 01:47:22;;;;;;;37.20;22.40;;;;;;;-0.50;89.94;97491.20;88315;1302;97901;-82
2022/12/11 01:49:27;;;;;;;37.30;20.00;;;;;;;-0.51;90.13;97492.09;87509;1317;22598;-81
2022/12/11 01:51:32;;;;;;;38.10;21.10;;;;;;;-0.52;89.95;97494.34;87622;1311;22539;-81
2022/12/11 01:53:39;;;;;;;34.40;20.60;;;;;;;-0.53;90.00;97498.48;87759;1310;97679;-81
2022/12/11 01:55:40;;;;;;;33.40;19.40;;;;;;;-0.53;89.84;97496.44;87882;1312;22487;-82
2022/12/11 01:57:46;;;;;;;34.50;20.40;;;;;;;-0.55;90.03;97494.08;87908;1310;97915;-81
2022/12/11 01:59:47;;;;;;;37.50;22.00;;;;;;;-0.59;89.90;97484.52;88156;1303;22122;-81
2022/12/11 02:02:09;;;;;;;38.10;21.90;;;;;;;-0.56;89.93;97488.23;88003;1303;22496;-82
2022/12/11 02:04:14;;;;;;;36.60;23.00;;;;;;;-0.59;89.98;97478.15;87755;1309;97753;-82
2022/12/11 02:06:35;;;;;;;41.00;24.00;;;;;;;-0.56;89.98;97481.67;87652;1310;22611;-81
2022/12/11 02:08:37;;;;;;;35.90;22.80;;;;;;;-0.56;89.98;97479.27;87672;1315;22486;-81
2022/12/11 02:10:45;;;;;;;39.60;22.00;;;;;;;-0.56;89.87;97479.27;87617;1310;98020;-82
2022/12/11 02:13:13;;;;;;;33.30;22.00;;;;;;;-0.55;89.82;97481.64;87839;1306;22566;-83
2022/12/11 02:15:41;;;;;;;38.10;23.10;;;;;;;-0.54;90.02;97477.66;88230;1304;22993;-82
2022/12/11 02:18:04;;;;;;;30.70;20.60;;;;;;;-0.54;89.96;97471.27;88508;1309;22183;-80
2022/12/11 02:20:16;;;;;;;32.90;20.20;;;;;;;-0.56;89.90;97465.45;88529;1310;22517;-82
2022/12/11 02:22:37;;;;;;;29.40;19.20;;;;;;;-0.57;90.07;97465.84;88425;1306;97698;-82
2022/12/11 02:24:49;;;;;;;32.10;19.50;;;;;;;-0.59;89.76;97469.50;88108;1309;22579;-81
2022/12/11 02:27:27;;;;;;;32.70;19.20;;;;;;;-0.58;89.83;97469.13;87755;1310;24288;-81
2022/12/11 02:29:37;;;;;;;29.30;18.90;;;;;;;-0.58;90.04;97473.79;87470;1310;98275;-82
2022/12/11 02:32:17;;;;;;;28.80;18.00;;;;;;;-0.58;89.87;97473.97;87457;1316;22621;-82
2022/12/11 02:34:34;;;;;;;33.10;17.40;;;;;;;-0.58;89.94;97471.72;87450;1309;97836;-82
2022/12/11 02:36:40;;;;;;;29.70;18.90;;;;;;;-0.58;89.97;97468.81;87367;1312;26916;-81
2022/12/11 02:38:49;;;;;;;26.40;18.20;;;;;;;-0.60;89.95;97467.46;87381;1309;22513;-80
2022/12/11 02:40:53;;;;;;;30.50;18.40;;;;;;;-0.61;90.00;97465.59;87321;1313;98725;-81
2022/12/11 02:42:59;;;;;;;29.10;17.90;;;;;;;-0.61;89.74;97463.19;87478;1316;22584;-82
2022/12/11 02:45:03;;;;;;;29.90;18.50;;;;;;;-0.62;89.95;97460.10;87490;1303;22537;-82
2022/12/11 02:47:11;;;;;;;26.70;17.00;;;;;;;-0.62;89.83;97463.05;87278;1313;98762;-80
2022/12/11 02:49:14;;;;;;;33.00;17.70;;;;;;;-0.64;89.92;97463.63;87346;1312;24221;-81
2022/12/11 02:51:20;;;;;;;30.60;17.80;;;;;;;-0.66;89.83;97458.86;87358;1310;22512;-80
2022/12/11 02:53:26;;;;;;;29.60;16.60;;;;;;;-0.69;89.94;97456.69;87171;1306;97771;-82
2022/12/11 02:55:30;;;;;;;31.70;17.60;;;;;;;-0.71;89.91;97450.53;87309;1313;22977;-82
2022/12/11 02:57:44;;;;;;;32.30;18.20;;;;;;;-0.72;89.78;97448.48;87304;1319;22513;-83
2022/12/11 02:59:45;;;;;;;31.50;18.90;;;;;;;-0.73;89.79;97448.70;87493;1309;23761;-82
2022/12/11 03:01:47;;;;;;;32.70;19.90;;;;;;;-0.75;89.92;97449.26;87348;1316;22113;-83
2022/12/11 03:03:49;;;;;;;29.50;19.20;;;;;;;-0.76;89.90;97448.24;87241;1310;97964;-83
2022/12/11 03:05:51;;;;;;;31.50;18.90;;;;;;;-0.77;89.82;97452.94;87438;1298;22559;-85
2022/12/11 03:07:52;;;;;;;29.30;18.80;;;;;;;-0.77;89.89;97456.39;87374;1309;24014;-85
2022/12/11 03:09:54;;;;;;;30.90;18.10;;;;;;;-0.78;89.76;97461.40;87336;1307;98082;-85
2022/12/11 03:11:56;;;;;;;30.50;17.30;;;;;;;-0.79;89.95;97456.42;87550;1318;22597;-85
2022/12/11 03:14:01;;;;;;;28.80;18.20;;;;;;;-0.80;89.80;97450.94;87589;1309;22614;-86
2022/12/11 03:16:19;;;;;;;30.00;18.00;;;;;;;-0.81;89.79;97447.70;87462;1318;97880;-84
2022/12/11 03:18:42;;;;;;;26.90;17.30;;;;;;;-0.82;89.93;97447.56;87498;1297;24262;-84
2022/12/11 03:20:49;;;;;;;28.00;17.40;;;;;;;-0.85;89.83;97447.80;87682;1296;22502;-85
2022/12/11 03:23:06;;;;;;;24.50;16.30;;;;;;;-0.86;89.79;97450.08;87747;1309;98633;-84
2022/12/11 03:25:20;;;;;;;27.30;16.80;;;;;;;-0.86;89.78;97447.66;87955;1310;22948;-84
2022/12/11 03:27:50;;;;;;;25.60;17.20;;;;;;;-0.86;89.91;97446.09;88224;1310;23068;-84
2022/12/11 03:30:04;;;;;;;26.00;17.20;;;;;;;-0.87;89.90;97439.05;88363;1310;22588;-83
2022/12/11 03:32:11;;;;;;;27.30;17.30;;;;;;;-0.87;89.82;97432.86;88416;1312;22991;-82
2022/12/11 03:34:26;;;;;;;31.70;18.50;;;;;;;-0.88;89.79;97433.39;88268;1309;97997;-84
2022/12/11 03:36:33;;;;;;;28.80;18.20;;;;;;;-0.87;89.77;97433.36;88417;1303;22515;-84
2022/12/11 03:38:49;;;;;;;27.20;18.40;;;;;;;-0.87;89.77;97428.03;88438;1303;22542;-83
2022/12/11 03:40:55;;;;;;;26.40;17.60;;;;;;;-0.86;89.83;97425.41;88340;1309;97938;-83
2022/12/11 03:42:57;;;;;;;27.50;18.10;;;;;;;-0.85;89.99;97424.17;88438;1311;22269;-84
2022/12/11 03:44:59;;;;;;;28.10;18.10;;;;;;;-0.83;89.83;97421.73;88412;1310;22554;-85
2022/12/11 03:47:08;;;;;;;27.60;17.20;;;;;;;-0.82;89.91;97421.16;88335;1306;98088;-83
2022/12/11 03:49:19;;;;;;;24.30;15.90;;;;;;;-0.81;89.87;97418.75;88517;1309;22569;-84
2022/12/11 03:51:23;;;;;;;26.70;17.00;;;;;;;-0.82;89.86;97418.40;88341;1312;22220;-84
2022/12/11 03:53:26;;;;;;;26.40;15.30;;;;;;;-0.81;89.71;97410.80;88179;1316;98591;-83
2022/12/11 03:55:29;;;;;;;24.60;15.60;;;;;;;-0.81;89.80;97410.47;87954;1294;22593;-85
2022/12/11 03:57:35;;;;;;;18.70;14.40;;;;;;;-0.83;89.79;97407.41;88040;1313;22431;-85
2022/12/11 03:59:37;;;;;;;20.60;14.80;;;;;;;-0.83;89.71;97408.80;87709;1312;98509;-83
2022/12/11 04:01:38;;;;;;;20.60;14.00;;;;;;;-0.85;89.76;97410.22;87680;1312;22484;-84
2022/12/11 04:03:40;;;;;;;22.90;14.30;;;;;;;-0.86;89.73;97410.40;87782;1314;22521;-85
2022/12/11 04:05:51;;;;;;;21.30;14.30;;;;;;;-0.86;89.72;97410.05;87536;1305;97599;-85
2022/12/11 04:07:52;;;;;;;22.80;14.70;;;;;;;-0.88;89.79;97415.83;87628;1313;22549;-85
2022/12/11 04:09:55;;;;;;;19.80;14.50;;;;;;;-0.89;89.74;97412.05;87661;1312;98146;-84
2022/12/11 04:11:56;;;;;;;19.40;13.10;;;;;;;-0.96;89.83;97409.99;87643;1320;22912;-85
2022/12/11 04:16:18;;;;;;;21.50;13.60;;;;;;;-0.92;89.89;97414.35;87336;1306;98686;-86
2022/12/11 04:25:26;;;;;;;17.60;12.30;;;;;;;-0.97;89.74;97404.67;87359;1308;22500;-85
2022/12/11 04:29:48;;;;;;;18.80;14.00;;;;;;;-0.99;89.79;97403.52;87292;1309;98037;-85
2022/12/11 04:31:50;;;;;;;18.50;13.60;;;;;;;-1.01;89.88;97405.48;87444;1315;22859;-85
2022/12/11 04:33:52;;;;;;;19.80;13.00;;;;;;;-1.01;89.80;97406.51;87396;1314;99758;-84
2022/12/11 04:35:57;;;;;;;18.00;12.60;;;;;;;-1.01;89.76;97405.48;87589;1312;22525;-83
2022/12/11 04:38:00;;;;;;;19.00;13.90;;;;;;;-1.02;89.86;97407.23;87647;1315;24237;-83
2022/12/11 04:40:03;;;;;;;21.40;13.90;;;;;;;-1.04;89.79;97408.48;87607;1299;98175;-84
2022/12/11 04:42:05;;;;;;;22.60;14.50;;;;;;;-1.04;89.74;97408.82;87988;1307;22446;-83
2022/12/11 04:44:07;;;;;;;20.00;14.50;;;;;;;-1.05;89.78;97412.14;87930;1312;22660;-83
2022/12/11 04:46:20;;;;;;;21.30;14.40;;;;;;;-1.06;89.79;97408.19;87729;1306;97917;-84
2022/12/11 04:48:22;;;;;;;22.60;14.20;;;;;;;-1.05;89.80;97405.95;88044;1313;22461;-84
2022/12/11 04:50:23;;;;;;;21.20;14.90;;;;;;;-1.06;89.89;97405.61;88027;1320;22180;-83
2022/12/11 04:52:25;;;;;;;22.00;13.80;;;;;;;-1.05;89.76;97404.90;88079;1307;97726;-83
2022/12/11 04:54:30;;;;;;;19.30;14.30;;;;;;;-1.08;89.79;97398.60;88088;1313;22565;-84
2022/12/11 04:56:31;;;;;;;20.80;14.70;;;;;;;-1.06;89.79;97403.38;88125;1312;22526;-83
2022/12/11 04:58:37;;;;;;;28.80;16.50;;;;;;;-1.08;89.83;97399.27;88173;1313;98043;-83
2022/12/11 05:00:40;;;;;;;25.80;15.00;;;;;;;-1.09;89.72;97395.70;88207;1305;24459;-83
2022/12/11 05:02:42;;;;;;;21.20;15.20;;;;;;;-1.09;89.80;97395.86;88255;1312;22072;-83
2022/12/11 05:04:44;;;;;;;20.90;14.20;;;;;;;-1.10;89.89;97394.52;88267;1310;98361;-82
2022/12/11 05:06:50;;;;;;;21.90;14.70;;;;;;;-1.10;89.85;97399.17;88412;1313;22523;-81
2022/12/11 05:08:52;;;;;;;22.20;15.20;;;;;;;-1.12;89.78;97393.02;88359;1306;22798;-83
2022/12/11 05:10:59;;;;;;;22.00;15.10;;;;;;;-1.10;89.82;97398.49;88272;1304;98601;-82
2022/12/11 05:13:01;;;;;;;22.90;15.00;;;;;;;-1.10;89.82;97395.92;88268;1299;22499;-83
2022/12/11 05:15:08;;;;;;;19.00;14.70;;;;;;;-1.10;89.86;97391.07;88380;1310;22511;-82
2022/12/11 05:17:10;;;;;;;22.50;15.80;;;;;;;-1.10;89.75;97389.86;88124;1309;98739;-82
2022/12/11 05:19:12;;;;;;;24.70;15.40;;;;;;;-1.09;89.69;97391.07;88209;1302;22586;-82
2022/12/11 05:21:15;;;;;;;26.80;16.80;;;;;;;-1.10;89.78;97386.59;88244;1310;22514;-82
2022/12/11 05:23:16;;;;;;;24.70;16.30;;;;;;;-1.11;89.91;97381.09;87991;1308;97858;-83
2022/12/11 05:25:18;;;;;;;24.60;16.50;;;;;;;-1.13;89.76;97377.52;88160;1312;22515;-82
2022/12/11 05:27:20;;;;;;;27.90;17.10;;;;;;;-1.13;89.82;97376.52;88081;1313;22516;-83
2022/12/11 05:29:21;;;;;;;24.60;16.70;;;;;;;-1.14;89.67;97378.26;87940;1312;97915;-82
2022/12/11 05:31:25;;;;;;;25.90;16.60;;;;;;;-1.16;89.78;97376.59;88087;1296;22512;-82
2022/12/11 05:33:29;;;;;;;22.60;16.00;;;;;;;-1.18;89.65;97371.98;88123;1310;22507;-82
2022/12/11 05:35:31;;;;;;;25.40;15.90;;;;;;;-1.19;89.65;97371.50;88084;1300;98014;-82
2022/12/11 05:37:33;;;;;;;24.20;16.90;;;;;;;-1.20;89.77;97372.53;88097;1296;22804;-81
2022/12/11 05:39:36;;;;;;;24.30;17.30;;;;;;;-1.20;89.76;97375.13;87999;1314;22795;-83
2022/12/11 05:41:37;;;;;;;23.50;16.30;;;;;;;-1.21;89.70;97376.70;87796;1307;98007;-81
2022/12/11 05:43:39;;;;;;;28.60;16.50;;;;;;;-1.23;89.66;97374.35;87819;1312;22520;-83
2022/12/11 05:45:41;;;;;;;27.00;17.90;;;;;;;-1.24;89.70;97368.52;87906;1309;22496;-83
2022/12/11 05:47:43;;;;;;;24.90;16.60;;;;;;;-1.25;89.67;97365.60;87845;1311;97558;-82
2022/12/11 05:49:46;;;;;;;23.70;17.00;;;;;;;-1.26;89.58;97365.47;87747;1311;22502;-82
2022/12/11 05:51:48;;;;;;;26.40;17.20;;;;;;;-1.27;89.77;97364.45;87861;1319;22610;-82
2022/12/11 05:53:51;;;;;;;23.30;15.80;;;;;;;-1.29;89.70;97367.77;87562;1309;97602;-82
2022/12/11 05:55:54;;;;;;;24.60;16.10;;;;;;;-1.31;89.64;97363.52;87625;1303;22545;-82
2022/12/11 05:57:55;;;;;;;31.20;17.60;;;;;;;-1.33;89.64;97359.11;87679;1315;98081;-82
2022/12/11 05:59:57;;;;;;;22.90;15.10;;;;;;;-1.34;89.73;97355.70;87821;1313;25297;-81
2022/12/11 06:01:59;;;;;;;20.30;14.70;;;;;;;-1.40;89.57;97348.09;87742;1304;22677;-83
2022/12/11 06:04:02;;;;;;;20.80;15.60;;;;;;;-1.39;89.58;97352.88;87498;1312;98608;-81
2022/12/11 06:06:04;;;;;;;23.20;16.50;;;;;;;-1.41;89.48;97349.16;87989;1303;22538;-82
2022/12/11 06:08:07;;;;;;;24.30;15.30;;;;;;;-1.43;89.61;97344.20;88003;1306;22908;-82
2022/12/11 06:10:09;;;;;;;23.60;16.40;;;;;;;-1.44;89.67;97343.19;88008;1309;98878;-81
2022/12/11 06:12:11;;;;;;;27.90;17.60;;;;;;;-1.44;89.62;97347.34;87977;1306;22521;-82
2022/12/11 06:14:13;;;;;;;28.90;16.60;;;;;;;-1.43;89.64;97347.98;87939;1312;22774;-81
2022/12/11 06:16:15;;;;;;;26.40;16.20;;;;;;;-1.43;89.64;97350.77;87784;1306;97748;-81
2022/12/11 06:18:16;;;;;;;31.60;17.70;;;;;;;-1.44;89.60;97356.13;87993;1310;22611;-81
2022/12/11 06:20:18;;;;;;;27.80;17.30;;;;;;;-1.45;89.58;97356.14;87878;1313;22502;-81
2022/12/11 06:22:20;;;;;;;24.20;16.30;;;;;;;-1.46;89.70;97357.90;88021;1306;97707;-81
2022/12/11 06:24:21;;;;;;;24.10;17.50;;;;;;;-1.46;89.59;97363.40;87962;1312;22447;-80
2022/12/11 06:26:23;;;;;;;24.90;16.60;;;;;;;-1.47;89.62;97357.40;87948;1313;25319;-81
2022/12/11 06:28:25;;;;;;;24.50;16.70;;;;;;;-1.49;89.66;97363.33;87990;1309;97928;-80
2022/12/11 06:30:27;;;;;;;24.10;16.20;;;;;;;-1.50;89.65;97366.78;88132;1309;22581;-81
2022/12/11 06:32:28;;;;;;;25.60;17.50;;;;;;;-1.50;89.66;97365.06;88007;1312;22832;-83
2022/12/11 06:34:30;;;;;;;25.70;16.50;;;;;;;-1.49;89.75;97365.40;87999;1316;98009;-82
2022/12/11 06:36:32;;;;;;;24.10;17.20;;;;;;;-1.49;89.65;97367.45;88157;1303;22282;-81
2022/12/11 06:38:34;;;;;;;24.80;17.00;;;;;;;-1.49;89.62;97369.52;88022;1312;23315;-81
2022/12/11 06:40:37;;;;;;;23.00;16.70;;;;;;;-1.50;89.69;97377.64;87972;1312;97840;-81
2022/12/11 06:42:38;;;;;;;26.30;17.90;;;;;;;-1.49;89.69;97380.89;88139;1310;22684;-81
2022/12/11 06:44:40;;;;;;;29.70;17.70;;;;;;;-1.50;89.69;97384.70;88096;1306;22512;-81
2022/12/11 06:46:42;;;;;;;29.60;19.10;;;;;;;-1.51;89.65;97387.65;88113;1311;97934;-81
2022/12/11 06:48:45;;;;;;;28.40;19.30;;;;;;;-1.50;89.65;97389.36;88201;1312;22662;-81
2022/12/11 06:50:46;;;;;;;28.90;19.20;;;;;;;-1.49;89.66;97385.38;88266;1312;22982;-81
2022/12/11 06:52:48;;;;;;;23.80;17.80;;;;;;;-1.48;89.69;97383.63;88173;1302;97621;-81
2022/12/11 06:54:50;;;;;;;29.80;17.70;;;;;;;-1.49;89.59;97385.71;88298;1312;22545;-81
2022/12/11 06:56:51;;;;;;;27.70;18.00;;;;;;;-1.49;89.65;97386.41;88222;1312;22563;-81
2022/12/11 06:58:54;;;;;;;28.10;17.90;;;;;;;-1.49;89.62;97382.79;88220;1306;98139;-81
2022/12/11 07:00:56;;;;;;;30.10;19.40;;;;;;;-1.48;89.58;97384.49;88272;1309;22467;-81
2022/12/11 07:02:58;;;;;;;34.20;20.70;;;;;;;-1.48;89.67;97386.71;88287;1312;22367;-81
2022/12/11 07:04:59;;;;;;;27.60;18.00;;;;;;;-1.47;89.68;97385.66;88215;1310;97850;-81
2022/12/11 07:07:01;;;;;;;24.80;17.00;;;;;;;-1.47;89.69;97390.46;88226;1299;22494;-80
2022/12/11 07:09:05;;;;;;;21.30;14.10;;;;;;;-1.48;89.63;97386.89;88288;1309;22403;-81
2022/12/11 07:11:12;;;;;;;20.30;14.90;;;;;;;-1.50;89.54;97380.56;88162;1310;97860;-82
2022/12/11 07:13:14;;;;;;;22.50;12.80;;;;;;;-1.52;89.61;97380.96;88259;1311;22463;-81
2022/12/11 07:15:16;;;;;;;24.10;14.40;;;;;;;-1.56;89.57;97388.98;88425;1305;22695;-80
2022/12/11 07:17:18;;;;;;;23.50;14.80;;;;;;;-1.57;89.48;97393.82;88219;1316;97864;-80
2022/12/11 07:19:19;;;;;;;23.70;14.80;;;;;;;-1.58;89.52;97395.06;88192;1311;22522;-80
2022/12/11 07:21:21;;;;;;;21.90;14.70;;;;;;;-1.58;89.51;97388.34;88264;1309;22121;-80
2022/12/11 07:23:23;;;;;;;22.80;15.00;;;;;;;-1.59;89.57;97390.42;88083;1314;98319;-81
2022/12/11 07:25:24;;;;;;;26.00;16.00;;;;;;;-1.59;89.54;97391.46;88220;1312;22708;-80
2022/12/11 07:27:27;;;;;;;20.70;14.90;;;;;;;-1.58;89.69;97395.39;88044;1313;22865;-80
2022/12/11 07:29:28;;;;;;;21.50;14.80;;;;;;;-1.57;89.62;97396.40;88121;1311;97689;-82
2022/12/11 07:31:30;;;;;;;21.80;14.50;;;;;;;-1.56;89.60;97399.13;88171;1308;22458;-81
2022/12/11 07:33:32;;;;;;;22.10;14.50;;;;;;;-1.55;89.64;97399.81;88181;1306;22611;-81
2022/12/11 07:35:35;;;;;;;18.80;14.70;;;;;;;-1.53;89.57;97404.59;88045;1309;97874;-82
2022/12/11 07:37:39;;;;;;;22.10;15.40;;;;;;;-1.54;89.58;97393.59;87630;1309;22556;-82
2022/12/11 07:39:41;;;;;;;22.10;15.00;;;;;;;-1.53;89.59;97390.48;87293;1317;22658;-82
2022/12/11 07:41:42;;;;;;;27.30;16.70;;;;;;;-1.55;89.69;97386.90;87114;1318;97838;-83
2022/12/11 07:43:45;;;;;;;22.30;15.10;;;;;;;-1.55;89.58;97390.16;87324;1296;22475;-83
2022/12/11 07:45:47;;;;;;;30.20;16.50;;;;;;;-1.56;89.50;97392.26;87238;1312;25239;-83
2022/12/11 07:47:48;;;;;;;25.20;16.30;;;;;;;-1.56;89.55;97392.08;87120;1313;97670;-83
2022/12/11 07:49:50;;;;;;;26.30;16.20;;;;;;;-1.56;89.54;97396.73;87287;1316;24306;-84
2022/12/11 07:51:52;;;;;;;27.90;17.40;;;;;;;-1.57;89.44;97396.58;87246;1312;24251;-82
2022/12/11 07:53:59;;;;;;;22.70;15.00;;;;;;;-1.59;89.60;97396.45;87236;1316;97681;-82
2022/12/11 07:56:01;;;;;;;24.30;16.10;;;;;;;-1.61;89.38;97394.96;87287;1312;22740;-83
2022/12/11 07:58:02;;;;;;;21.90;14.10;;;;;;;-1.65;89.51;97391.09;87326;1313;98345;-84
2022/12/11 08:00:05;;;;;;;20.90;14.50;;;;;;;-1.64;89.48;97390.73;87378;1312;22494;-84
2022/12/11 08:02:10;;;;;;;23.00;15.10;;;;;;;-1.65;89.44;97382.83;87258;1312;23210;-85
2022/12/11 08:04:14;;;;;;;24.30;14.30;;;;;;;-1.64;89.54;97386.25;87205;1316;97900;-83
2022/12/11 08:06:17;;;;;;;24.30;15.10;;;;;;;-1.63;89.50;97393.28;87299;1312;23769;-83
2022/12/11 08:08:19;;;;;;;22.50;14.10;;;;;;;-1.63;89.48;97392.95;87245;1306;22520;-84
2022/12/11 08:10:21;;;;;;;18.10;12.80;;;;;;;-1.63;89.44;97398.30;87265;1312;98146;-84
2022/12/11 08:12:23;;;;;;;21.60;14.30;;;;;;;-1.65;89.45;97400.90;87257;1304;22514;-83
2022/12/11 08:14:25;;;;;;;23.20;15.10;;;;;;;-1.66;89.36;97395.27;87211;1310;22512;-84
2022/12/11 08:16:27;;;;;;;26.60;14.90;;;;;;;-1.66;89.57;97401.11;87206;1312;98588;-84
2022/12/11 08:18:29;;;;;;;25.10;16.60;;;;;;;-1.65;89.49;97400.77;87212;1312;22434;-85
2022/12/11 08:20:30;;;;;;;24.40;16.00;;;;;;;-1.65;89.46;97402.29;87393;1305;25951;-85
2022/12/11 08:22:33;;;;;;;24.20;15.30;;;;;;;-1.65;89.44;97397.98;87101;1306;97913;-83
2022/12/11 08:24:34;;;;;;;25.50;15.00;;;;;;;-1.67;89.44;97397.68;87265;1313;22704;-83
2022/12/11 08:26:36;;;;;;;24.00;15.90;;;;;;;-1.68;89.45;97393.43;87308;1316;22462;-84
2022/12/11 08:28:38;;;;;;;22.50;16.50;;;;;;;-1.68;89.37;97393.77;87249;1311;98378;-84
2022/12/11 08:30:40;;;;;;;24.20;16.80;;;;;;;-1.68;89.43;97397.02;87415;1312;22549;-84
2022/12/11 08:32:42;;;;;;;25.80;17.00;;;;;;;-1.68;89.50;97396.00;87336;1313;22518;-83
2022/12/11 08:34:43;;;;;;;22.60;16.00;;;;;;;-1.67;89.46;97398.39;87296;1318;98731;-84
2022/12/11 08:36:45;;;;;;;21.30;14.50;;;;;;;-1.68;89.44;97399.42;87385;1310;24055;-85
2022/12/11 08:38:51;;;;;;;22.90;16.10;;;;;;;-1.67;89.41;97398.23;87319;1318;22504;-84
2022/12/11 08:40:53;;;;;;;28.80;17.30;;;;;;;-1.74;89.37;97386.86;87194;1306;97900;-84
2022/12/11 08:42:55;;;;;;;21.80;15.80;;;;;;;-1.66;89.36;97395.95;87332;1315;22517;-85
2022/12/11 08:44:56;;;;;;;25.90;17.00;;;;;;;-1.66;89.28;97401.80;87201;1311;23030;-84
2022/12/11 08:47:04;;;;;;;25.40;17.40;;;;;;;-1.66;89.35;97398.86;87256;1309;97944;-84
2022/12/11 08:49:06;;;;;;;25.90;16.50;;;;;;;-1.65;89.30;97393.35;87117;1314;22846;-83
2022/12/11 08:51:11;;;;;;;22.80;15.90;;;;;;;-1.67;89.23;97390.48;87328;1313;23890;-83
2022/12/11 08:53:14;;;;;;;24.30;17.60;;;;;;;-1.70;89.30;97386.56;87246;1312;97870;-84
2022/12/11 08:55:20;;;;;;;27.70;18.10;;;;;;;-1.71;89.24;97389.70;87199;1313;23238;-84
2022/12/11 08:57:23;;;;;;;27.10;16.70;;;;;;;-1.72;89.25;97392.47;87360;1315;22577;-84
2022/12/11 08:59:24;;;;;;;25.30;17.30;;;;;;;-1.73;89.15;97396.11;87218;1298;98554;-84
2022/12/11 09:01:28;;;;;;;22.20;16.60;;;;;;;-1.75;89.33;97390.16;87223;1313;22480;-85
2022/12/11 09:03:30;;;;;;;25.40;18.00;;;;;;;-1.75;89.17;97387.22;87566;1313;22513;-83
2022/12/11 09:05:32;;;;;;;25.80;17.20;;;;;;;-1.75;89.12;97387.73;87308;1310;98117;-83
2022/12/11 09:07:36;;;;;;;25.00;16.00;;;;;;;-1.75;89.25;97390.31;87126;1311;24284;-81
2022/12/11 09:09:38;;;;;;;22.00;15.40;;;;;;;-1.78;89.15;97394.52;87149;1312;22524;-81
2022/12/11 09:11:40;;;;;;;20.40;14.30;;;;;;;-1.80;89.14;97397.86;87189;1310;97728;-84
2022/12/11 09:13:44;;;;;;;21.60;14.90;;;;;;;-1.83;89.06;97392.40;86915;1319;366786;-82
2022/12/11 09:15:46;;;;;;;24.40;15.20;;;;;;;-1.84;89.07;97389.15;86936;1319;22576;-81
2022/12/11 09:17:48;;;;;;;20.90;15.30;;;;;;;-1.87;89.05;97389.06;87260;1309;97740;-85
2022/12/11 09:19:49;;;;;;;20.30;14.90;;;;;;;-1.89;89.11;97395.64;87113;1312;23809;-83
2022/12/11 09:21:51;;;;;;;22.50;15.20;;;;;;;-1.90;89.05;97397.57;87081;1312;22673;-80
2022/12/11 09:23:58;;;;;;;22.80;15.10;;;;;;;-1.91;89.08;97402.58;86622;1308;97572;-79
2022/12/11 09:26:03;;;;;;;17.80;14.40;;;;;;;-1.93;88.97;97401.59;86679;1310;24217;-81
2022/12/11 09:28:05;;;;;;;20.30;14.50;;;;;;;-1.94;88.92;97403.85;86967;1312;98429;-79
2022/12/11 09:30:07;;;;;;;23.50;15.90;;;;;;;-1.93;88.95;97404.34;86815;1309;25388;-80
2022/12/11 09:32:09;;;;;;;22.90;15.90;;;;;;;-1.92;89.04;97403.11;86815;1312;22573;-81
2022/12/11 09:34:12;;;;;;;21.00;15.00;;;;;;;-1.89;89.10;97408.38;87009;1312;97794;-80
2022/12/11 09:36:14;;;;;;;28.30;16.50;;;;;;;-1.86;89.09;97400.92;86745;1310;22519;-81
2022/12/11 09:38:16;;;;;;;21.50;15.90;;;;;;;-1.85;89.18;97403.64;87068;1298;22499;-81
2022/12/11 09:40:17;;;;;;;24.00;17.20;;;;;;;-1.83;89.24;97398.43;87105;1309;98286;-81
2022/12/11 09:42:22;;;;;;;22.00;15.60;;;;;;;-1.79;89.17;97391.79;86863;1286;22517;-79